X  Lukk Metar værinformasjon om luftfart     LYNI Nis Airport
Temperatur
34°C Temperatur
20°C Duggpunkt
44% Luftfuktighet



Vind
12 MPT
19 KM/T
5 M/S
10 KNP



320°
NV
Nåværende forhold

Delvis overskyet Delvis overskyet
Trykk 1006.77 (hPa) - 29.73 (inHg)
Sikt 6 (mil) - 9.7 (km)
Flyplass
Flyplass-kode LYNI

Plassering: Nis Airport
Avstand: 63 (mi)

Metar:
LYNI 231330Z 32010KT 290V360 9999 FEW037TCU SCT040 34/20 Q1007 NOSIG

Tid: 23-06-2024 15:30 CEST